sensor_id;sensor_type;location;lat;lon;timestamp;P1;durP1;ratioP1;P2;durP2;ratioP2
67816;SDS011;54614;47.576;7.524;2024-02-23T00:02:12;1.73;;;0.90;;
67816;SDS011;54614;47.576;7.524;2024-02-23T00:04:38;0.80;;;0.80;;
67816;SDS011;54614;47.576;7.524;2024-02-23T00:07:03;4.43;;;1.00;;
67816;SDS011;54614;47.576;7.524;2024-02-23T00:09:29;2.90;;;1.00;;
67816;SDS011;54614;47.576;7.524;2024-02-23T00:11:55;3.33;;;0.90;;
67816;SDS011;54614;47.576;7.524;2024-02-23T00:14:21;0.80;;;0.80;;
67816;SDS011;54614;47.576;7.524;2024-02-23T00:16:47;1.97;;;1.00;;
67816;SDS011;54614;47.576;7.524;2024-02-23T00:19:13;1.77;;;1.20;;
67816;SDS011;54614;47.576;7.524;2024-02-23T00:21:38;1.20;;;1.00;;
67816;SDS011;54614;47.576;7.524;2024-02-23T00:24:07;2.20;;;0.90;;
67816;SDS011;54614;47.576;7.524;2024-02-23T00:26:33;1.97;;;0.90;;
67816;SDS011;54614;47.576;7.524;2024-02-23T00:28:59;1.00;;;0.90;;
67816;SDS011;54614;47.576;7.524;2024-02-23T00:31:24;0.93;;;0.80;;
67816;SDS011;54614;47.576;7.524;2024-02-23T00:33:50;2.27;;;0.97;;
67816;SDS011;54614;47.576;7.524;2024-02-23T00:36:16;2.57;;;0.90;;
67816;SDS011;54614;47.576;7.524;2024-02-23T00:38:42;1.70;;;1.10;;
67816;SDS011;54614;47.576;7.524;2024-02-23T00:41:08;4.10;;;1.00;;
67816;SDS011;54614;47.576;7.524;2024-02-23T00:43:38;3.27;;;0.90;;
67816;SDS011;54614;47.576;7.524;2024-02-23T00:46:04;2.17;;;0.90;;
67816;SDS011;54614;47.576;7.524;2024-02-23T00:48:30;1.93;;;0.80;;
67816;SDS011;54614;47.576;7.524;2024-02-23T00:50:56;0.80;;;0.80;;
67816;SDS011;54614;47.576;7.524;2024-02-23T00:53:22;2.20;;;0.83;;
67816;SDS011;54614;47.576;7.524;2024-02-23T00:55:47;1.17;;;0.70;;
67816;SDS011;54614;47.576;7.524;2024-02-23T00:58:14;1.50;;;0.80;;
67816;SDS011;54614;47.576;7.524;2024-02-23T01:00:40;0.80;;;0.80;;
67816;SDS011;54614;47.576;7.524;2024-02-23T01:03:07;0.83;;;0.80;;
67816;SDS011;54614;47.576;7.524;2024-02-23T01:05:33;2.60;;;0.90;;
67816;SDS011;54614;47.576;7.524;2024-02-23T01:07:58;1.27;;;0.80;;
67816;SDS011;54614;47.576;7.524;2024-02-23T01:10:24;2.50;;;0.90;;
67816;SDS011;54614;47.576;7.524;2024-02-23T01:12:52;1.50;;;0.90;;
67816;SDS011;54614;47.576;7.524;2024-02-23T01:15:18;2.70;;;0.93;;
67816;SDS011;54614;47.576;7.524;2024-02-23T01:17:44;1.17;;;0.77;;
67816;SDS011;54614;47.576;7.524;2024-02-23T01:20:10;1.03;;;0.80;;
67816;SDS011;54614;47.576;7.524;2024-02-23T01:22:36;0.77;;;0.77;;
67816;SDS011;54614;47.576;7.524;2024-02-23T01:25:02;1.50;;;0.80;;
67816;SDS011;54614;47.576;7.524;2024-02-23T01:27:28;1.13;;;0.90;;
67816;SDS011;54614;47.576;7.524;2024-02-23T01:29:54;1.80;;;0.70;;
67816;SDS011;54614;47.576;7.524;2024-02-23T01:32:20;1.80;;;0.83;;
67816;SDS011;54614;47.576;7.524;2024-02-23T01:34:46;0.80;;;0.80;;
67816;SDS011;54614;47.576;7.524;2024-02-23T01:37:11;2.93;;;0.80;;
67816;SDS011;54614;47.576;7.524;2024-02-23T01:39:37;0.93;;;0.80;;
67816;SDS011;54614;47.576;7.524;2024-02-23T01:42:04;0.80;;;0.80;;
67816;SDS011;54614;47.576;7.524;2024-02-23T01:44:29;2.53;;;0.80;;
67816;SDS011;54614;47.576;7.524;2024-02-23T01:46:55;0.83;;;0.73;;
67816;SDS011;54614;47.576;7.524;2024-02-23T01:49:21;0.80;;;0.80;;
67816;SDS011;54614;47.576;7.524;2024-02-23T01:51:54;1.33;;;0.70;;
67816;SDS011;54614;47.576;7.524;2024-02-23T01:54:22;0.70;;;0.70;;
67816;SDS011;54614;47.576;7.524;2024-02-23T01:56:48;0.97;;;0.80;;
67816;SDS011;54614;47.576;7.524;2024-02-23T01:59:14;1.17;;;0.77;;
67816;SDS011;54614;47.576;7.524;2024-02-23T02:01:42;1.60;;;0.80;;
67816;SDS011;54614;47.576;7.524;2024-02-23T02:04:09;0.70;;;0.70;;
67816;SDS011;54614;47.576;7.524;2024-02-23T02:06:35;0.73;;;0.73;;
67816;SDS011;54614;47.576;7.524;2024-02-23T02:09:01;0.90;;;0.90;;
67816;SDS011;54614;47.576;7.524;2024-02-23T02:11:27;0.93;;;0.80;;
67816;SDS011;54614;47.576;7.524;2024-02-23T02:13:53;1.80;;;0.77;;
67816;SDS011;54614;47.576;7.524;2024-02-23T02:16:19;0.80;;;0.80;;
67816;SDS011;54614;47.576;7.524;2024-02-23T02:18:44;1.43;;;0.80;;
67816;SDS011;54614;47.576;7.524;2024-02-23T02:21:11;0.57;;;0.57;;
67816;SDS011;54614;47.576;7.524;2024-02-23T02:23:37;1.13;;;0.80;;
67816;SDS011;54614;47.576;7.524;2024-02-23T02:26:03;1.00;;;0.90;;
67816;SDS011;54614;47.576;7.524;2024-02-23T02:28:29;1.43;;;0.90;;
67816;SDS011;54614;47.576;7.524;2024-02-23T02:30:55;1.13;;;0.67;;
67816;SDS011;54614;47.576;7.524;2024-02-23T02:33:21;0.80;;;0.73;;
67816;SDS011;54614;47.576;7.524;2024-02-23T02:35:48;1.33;;;0.67;;
67816;SDS011;54614;47.576;7.524;2024-02-23T02:38:17;1.50;;;0.70;;
67816;SDS011;54614;47.576;7.524;2024-02-23T02:40:43;4.57;;;0.80;;
67816;SDS011;54614;47.576;7.524;2024-02-23T02:43:09;0.87;;;0.70;;
67816;SDS011;54614;47.576;7.524;2024-02-23T02:45:35;1.00;;;0.80;;
67816;SDS011;54614;47.576;7.524;2024-02-23T02:48:00;2.00;;;0.80;;
67816;SDS011;54614;47.576;7.524;2024-02-23T02:50:29;1.30;;;0.83;;
67816;SDS011;54614;47.576;7.524;2024-02-23T02:52:55;0.80;;;0.80;;
67816;SDS011;54614;47.576;7.524;2024-02-23T02:55:21;3.07;;;0.70;;
67816;SDS011;54614;47.576;7.524;2024-02-23T02:57:47;1.43;;;1.00;;
67816;SDS011;54614;47.576;7.524;2024-02-23T03:00:13;0.90;;;0.70;;
67816;SDS011;54614;47.576;7.524;2024-02-23T03:02:39;1.27;;;0.70;;
67816;SDS011;54614;47.576;7.524;2024-02-23T03:05:04;0.87;;;0.70;;
67816;SDS011;54614;47.576;7.524;2024-02-23T03:07:31;1.83;;;0.80;;
67816;SDS011;54614;47.576;7.524;2024-02-23T03:09:56;1.93;;;0.70;;
67816;SDS011;54614;47.576;7.524;2024-02-23T03:12:22;0.70;;;0.70;;
67816;SDS011;54614;47.576;7.524;2024-02-23T03:14:48;0.80;;;0.70;;
67816;SDS011;54614;47.576;7.524;2024-02-23T03:17:14;0.70;;;0.70;;
67816;SDS011;54614;47.576;7.524;2024-02-23T03:19:40;2.63;;;0.70;;
67816;SDS011;54614;47.576;7.524;2024-02-23T03:22:06;0.70;;;0.70;;
67816;SDS011;54614;47.576;7.524;2024-02-23T03:24:32;3.50;;;0.70;;
67816;SDS011;54614;47.576;7.524;2024-02-23T03:26:58;0.80;;;0.80;;
67816;SDS011;54614;47.576;7.524;2024-02-23T03:29:24;1.80;;;0.63;;
67816;SDS011;54614;47.576;7.524;2024-02-23T03:31:54;2.27;;;0.90;;
67816;SDS011;54614;47.576;7.524;2024-02-23T03:34:20;1.93;;;0.70;;
67816;SDS011;54614;47.576;7.524;2024-02-23T03:36:46;1.27;;;0.70;;
67816;SDS011;54614;47.576;7.524;2024-02-23T03:39:12;0.70;;;0.70;;
67816;SDS011;54614;47.576;7.524;2024-02-23T03:41:38;2.37;;;0.70;;
67816;SDS011;54614;47.576;7.524;2024-02-23T03:44:04;0.70;;;0.70;;
67816;SDS011;54614;47.576;7.524;2024-02-23T03:46:30;1.87;;;0.80;;
67816;SDS011;54614;47.576;7.524;2024-02-23T03:48:56;0.80;;;0.80;;
67816;SDS011;54614;47.576;7.524;2024-02-23T03:51:22;1.63;;;1.13;;
67816;SDS011;54614;47.576;7.524;2024-02-23T03:53:49;3.43;;;1.20;;
67816;SDS011;54614;47.576;7.524;2024-02-23T03:56:15;1.10;;;1.00;;
67816;SDS011;54614;47.576;7.524;2024-02-23T03:58:41;1.10;;;1.10;;
67816;SDS011;54614;47.576;7.524;2024-02-23T04:01:07;0.90;;;0.90;;
67816;SDS011;54614;47.576;7.524;2024-02-23T04:03:33;1.20;;;1.00;;
67816;SDS011;54614;47.576;7.524;2024-02-23T04:05:59;0.93;;;0.93;;
67816;SDS011;54614;47.576;7.524;2024-02-23T04:08:25;0.90;;;0.90;;
67816;SDS011;54614;47.576;7.524;2024-02-23T04:10:51;2.83;;;0.90;;
67816;SDS011;54614;47.576;7.524;2024-02-23T04:13:16;1.37;;;0.80;;
67816;SDS011;54614;47.576;7.524;2024-02-23T04:15:46;0.77;;;0.77;;
67816;SDS011;54614;47.576;7.524;2024-02-23T04:18:12;0.90;;;0.90;;
67816;SDS011;54614;47.576;7.524;2024-02-23T04:20:38;0.97;;;0.80;;
67816;SDS011;54614;47.576;7.524;2024-02-23T04:23:03;1.07;;;0.70;;
67816;SDS011;54614;47.576;7.524;2024-02-23T04:25:29;1.00;;;0.90;;
67816;SDS011;54614;47.576;7.524;2024-02-23T04:27:55;1.03;;;0.80;;
67816;SDS011;54614;47.576;7.524;2024-02-23T04:30:21;1.23;;;0.80;;
67816;SDS011;54614;47.576;7.524;2024-02-23T04:32:46;2.13;;;0.80;;
67816;SDS011;54614;47.576;7.524;2024-02-23T04:35:12;0.80;;;0.80;;
67816;SDS011;54614;47.576;7.524;2024-02-23T04:37:38;0.77;;;0.77;;
67816;SDS011;54614;47.576;7.524;2024-02-23T04:40:04;0.80;;;0.80;;
67816;SDS011;54614;47.576;7.524;2024-02-23T04:42:32;2.00;;;1.10;;
67816;SDS011;54614;47.576;7.524;2024-02-23T04:44:57;1.50;;;1.40;;
67816;SDS011;54614;47.576;7.524;2024-02-23T04:47:23;1.60;;;1.50;;
67816;SDS011;54614;47.576;7.524;2024-02-23T04:49:49;1.80;;;1.40;;
67816;SDS011;54614;47.576;7.524;2024-02-23T04:52:15;2.87;;;1.70;;
67816;SDS011;54614;47.576;7.524;2024-02-23T04:54:41;2.93;;;1.73;;
67816;SDS011;54614;47.576;7.524;2024-02-23T04:57:06;1.83;;;1.50;;
67816;SDS011;54614;47.576;7.524;2024-02-23T04:59:32;6.37;;;1.63;;
67816;SDS011;54614;47.576;7.524;2024-02-23T05:01:58;5.40;;;1.53;;
67816;SDS011;54614;47.576;7.524;2024-02-23T05:04:24;5.03;;;1.60;;
67816;SDS011;54614;47.576;7.524;2024-02-23T05:06:51;3.37;;;1.30;;
67816;SDS011;54614;47.576;7.524;2024-02-23T05:09:17;3.33;;;1.60;;
67816;SDS011;54614;47.576;7.524;2024-02-23T05:11:43;3.73;;;1.50;;
67816;SDS011;54614;47.576;7.524;2024-02-23T05:14:11;4.17;;;1.60;;
67816;SDS011;54614;47.576;7.524;2024-02-23T05:16:36;3.07;;;1.90;;
67816;SDS011;54614;47.576;7.524;2024-02-23T05:19:03;4.40;;;1.83;;
67816;SDS011;54614;47.576;7.524;2024-02-23T05:21:39;5.30;;;1.80;;
67816;SDS011;54614;47.576;7.524;2024-02-23T05:24:05;8.50;;;2.00;;
67816;SDS011;54614;47.576;7.524;2024-02-23T05:26:31;1.80;;;1.70;;
67816;SDS011;54614;47.576;7.524;2024-02-23T05:28:57;3.37;;;1.80;;
67816;SDS011;54614;47.576;7.524;2024-02-23T05:31:25;2.53;;;1.57;;
67816;SDS011;54614;47.576;7.524;2024-02-23T05:34:19;2.73;;;1.80;;
67816;SDS011;54614;47.576;7.524;2024-02-23T05:36:45;1.80;;;1.50;;
67816;SDS011;54614;47.576;7.524;2024-02-23T05:39:12;1.97;;;1.60;;
67816;SDS011;54614;47.576;7.524;2024-02-23T05:41:40;1.50;;;1.40;;
67816;SDS011;54614;47.576;7.524;2024-02-23T05:44:07;2.53;;;1.47;;
67816;SDS011;54614;47.576;7.524;2024-02-23T05:46:33;2.77;;;1.50;;
67816;SDS011;54614;47.576;7.524;2024-02-23T05:49:01;4.13;;;1.43;;
67816;SDS011;54614;47.576;7.524;2024-02-23T05:51:29;2.87;;;1.70;;
67816;SDS011;54614;47.576;7.524;2024-02-23T05:53:56;4.30;;;1.50;;
67816;SDS011;54614;47.576;7.524;2024-02-23T05:56:22;2.67;;;1.50;;
67816;SDS011;54614;47.576;7.524;2024-02-23T05:58:51;3.23;;;1.40;;
67816;SDS011;54614;47.576;7.524;2024-02-23T06:01:17;2.20;;;1.40;;
67816;SDS011;54614;47.576;7.524;2024-02-23T06:03:44;2.90;;;1.70;;
67816;SDS011;54614;47.576;7.524;2024-02-23T06:06:10;4.90;;;1.63;;
67816;SDS011;54614;47.576;7.524;2024-02-23T06:08:37;2.40;;;1.30;;
67816;SDS011;54614;47.576;7.524;2024-02-23T06:11:03;1.47;;;1.30;;
67816;SDS011;54614;47.576;7.524;2024-02-23T06:13:32;4.30;;;1.50;;
67816;SDS011;54614;47.576;7.524;2024-02-23T06:15:59;3.60;;;1.53;;
67816;SDS011;54614;47.576;7.524;2024-02-23T06:18:25;13.80;;;1.50;;
67816;SDS011;54614;47.576;7.524;2024-02-23T06:20:50;5.03;;;1.60;;
67816;SDS011;54614;47.576;7.524;2024-02-23T06:23:16;3.00;;;1.47;;
67816;SDS011;54614;47.576;7.524;2024-02-23T06:25:42;3.93;;;1.70;;
67816;SDS011;54614;47.576;7.524;2024-02-23T06:28:11;4.13;;;1.53;;
67816;SDS011;54614;47.576;7.524;2024-02-23T06:30:37;3.17;;;1.43;;
67816;SDS011;54614;47.576;7.524;2024-02-23T06:33:03;3.30;;;1.23;;
67816;SDS011;54614;47.576;7.524;2024-02-23T06:35:31;4.57;;;1.60;;
67816;SDS011;54614;47.576;7.524;2024-02-23T06:37:57;8.13;;;1.90;;
67816;SDS011;54614;47.576;7.524;2024-02-23T06:40:23;5.90;;;1.67;;
67816;SDS011;54614;47.576;7.524;2024-02-23T06:42:48;11.77;;;1.80;;
67816;SDS011;54614;47.576;7.524;2024-02-23T06:45:15;12.20;;;1.80;;
67816;SDS011;54614;47.576;7.524;2024-02-23T06:47:41;10.60;;;1.70;;
67816;SDS011;54614;47.576;7.524;2024-02-23T06:50:09;6.33;;;1.60;;
67816;SDS011;54614;47.576;7.524;2024-02-23T06:52:36;5.63;;;1.50;;
67816;SDS011;54614;47.576;7.524;2024-02-23T06:55:02;2.70;;;1.67;;
67816;SDS011;54614;47.576;7.524;2024-02-23T06:57:29;10.30;;;1.97;;
67816;SDS011;54614;47.576;7.524;2024-02-23T06:59:56;9.47;;;2.10;;
67816;SDS011;54614;47.576;7.524;2024-02-23T07:02:21;7.60;;;2.50;;
67816;SDS011;54614;47.576;7.524;2024-02-23T07:04:47;7.87;;;3.33;;
67816;SDS011;54614;47.576;7.524;2024-02-23T07:07:13;9.93;;;3.80;;
67816;SDS011;54614;47.576;7.524;2024-02-23T07:09:39;12.03;;;3.53;;
67816;SDS011;54614;47.576;7.524;2024-02-23T07:12:05;7.37;;;3.80;;
67816;SDS011;54614;47.576;7.524;2024-02-23T07:14:31;19.40;;;4.40;;
67816;SDS011;54614;47.576;7.524;2024-02-23T07:16:58;8.00;;;3.73;;
67816;SDS011;54614;47.576;7.524;2024-02-23T07:19:23;8.57;;;3.60;;
67816;SDS011;54614;47.576;7.524;2024-02-23T07:21:49;11.37;;;4.30;;
67816;SDS011;54614;47.576;7.524;2024-02-23T07:24:15;10.07;;;4.07;;
67816;SDS011;54614;47.576;7.524;2024-02-23T07:26:41;8.53;;;3.90;;
67816;SDS011;54614;47.576;7.524;2024-02-23T07:29:07;11.03;;;3.70;;
67816;SDS011;54614;47.576;7.524;2024-02-23T07:31:32;10.47;;;3.90;;
67816;SDS011;54614;47.576;7.524;2024-02-23T07:33:58;8.77;;;3.70;;
67816;SDS011;54614;47.576;7.524;2024-02-23T07:36:24;6.83;;;3.50;;
67816;SDS011;54614;47.576;7.524;2024-02-23T07:38:50;13.23;;;3.50;;
67816;SDS011;54614;47.576;7.524;2024-02-23T07:41:16;10.23;;;3.70;;
67816;SDS011;54614;47.576;7.524;2024-02-23T07:43:45;9.13;;;3.20;;
67816;SDS011;54614;47.576;7.524;2024-02-23T07:46:11;6.80;;;3.20;;
67816;SDS011;54614;47.576;7.524;2024-02-23T07:48:38;7.10;;;3.10;;
67816;SDS011;54614;47.576;7.524;2024-02-23T07:51:04;6.47;;;3.30;;
67816;SDS011;54614;47.576;7.524;2024-02-23T07:53:31;7.37;;;3.50;;
67816;SDS011;54614;47.576;7.524;2024-02-23T07:55:57;9.90;;;3.40;;
67816;SDS011;54614;47.576;7.524;2024-02-23T07:58:27;5.50;;;2.93;;
67816;SDS011;54614;47.576;7.524;2024-02-23T08:00:52;7.27;;;3.00;;
67816;SDS011;54614;47.576;7.524;2024-02-23T08:03:18;5.27;;;3.13;;
67816;SDS011;54614;47.576;7.524;2024-02-23T08:05:44;4.80;;;2.90;;
67816;SDS011;54614;47.576;7.524;2024-02-23T08:08:10;5.83;;;3.20;;
67816;SDS011;54614;47.576;7.524;2024-02-23T08:10:36;8.93;;;3.30;;
67816;SDS011;54614;47.576;7.524;2024-02-23T08:13:02;5.70;;;2.80;;
67816;SDS011;54614;47.576;7.524;2024-02-23T08:15:27;6.97;;;2.97;;
67816;SDS011;54614;47.576;7.524;2024-02-23T08:17:53;5.93;;;3.03;;
67816;SDS011;54614;47.576;7.524;2024-02-23T08:20:19;6.53;;;3.00;;
67816;SDS011;54614;47.576;7.524;2024-02-23T08:22:45;4.00;;;2.87;;
67816;SDS011;54614;47.576;7.524;2024-02-23T08:25:10;4.90;;;2.87;;
67816;SDS011;54614;47.576;7.524;2024-02-23T08:27:36;4.47;;;2.97;;
67816;SDS011;54614;47.576;7.524;2024-02-23T08:30:02;5.77;;;3.00;;
67816;SDS011;54614;47.576;7.524;2024-02-23T08:32:29;4.97;;;2.93;;
67816;SDS011;54614;47.576;7.524;2024-02-23T08:34:54;7.07;;;2.87;;
67816;SDS011;54614;47.576;7.524;2024-02-23T08:37:24;4.90;;;2.67;;
67816;SDS011;54614;47.576;7.524;2024-02-23T08:39:51;5.63;;;3.00;;
67816;SDS011;54614;47.576;7.524;2024-02-23T08:42:18;4.50;;;2.67;;
67816;SDS011;54614;47.576;7.524;2024-02-23T08:44:44;3.60;;;2.57;;
67816;SDS011;54614;47.576;7.524;2024-02-23T08:47:09;5.20;;;2.70;;
67816;SDS011;54614;47.576;7.524;2024-02-23T08:49:35;7.60;;;2.80;;
67816;SDS011;54614;47.576;7.524;2024-02-23T08:52:01;5.40;;;2.80;;
67816;SDS011;54614;47.576;7.524;2024-02-23T08:54:27;4.40;;;2.63;;
67816;SDS011;54614;47.576;7.524;2024-02-23T08:56:53;4.70;;;2.70;;
67816;SDS011;54614;47.576;7.524;2024-02-23T08:59:18;3.77;;;2.87;;
67816;SDS011;54614;47.576;7.524;2024-02-23T09:01:44;3.50;;;2.57;;
67816;SDS011;54614;47.576;7.524;2024-02-23T09:04:11;3.85;;;2.60;;
67816;SDS011;54614;47.576;7.524;2024-02-23T09:06:38;3.80;;;2.60;;
67816;SDS011;54614;47.576;7.524;2024-02-23T09:09:04;5.27;;;2.60;;
67816;SDS011;54614;47.576;7.524;2024-02-23T09:11:30;4.67;;;2.80;;
67816;SDS011;54614;47.576;7.524;2024-02-23T09:13:56;3.67;;;2.60;;
67816;SDS011;54614;47.576;7.524;2024-02-23T09:16:21;3.47;;;2.50;;
67816;SDS011;54614;47.576;7.524;2024-02-23T09:18:49;3.57;;;2.37;;
67816;SDS011;54614;47.576;7.524;2024-02-23T09:21:16;2.60;;;2.05;;
67816;SDS011;54614;47.576;7.524;2024-02-23T09:23:41;3.63;;;2.60;;
67816;SDS011;54614;47.576;7.524;2024-02-23T09:26:10;32.30;;;3.60;;
67816;SDS011;54614;47.576;7.524;2024-02-23T09:28:36;37.70;;;3.47;;
67816;SDS011;54614;47.576;7.524;2024-02-23T09:31:03;20.87;;;3.40;;
67816;SDS011;54614;47.576;7.524;2024-02-23T09:33:30;21.20;;;3.10;;
67816;SDS011;54614;47.576;7.524;2024-02-23T09:35:56;16.95;;;3.03;;
67816;SDS011;54614;47.576;7.524;2024-02-23T09:38:23;17.02;;;2.70;;
67816;SDS011;54614;47.576;7.524;2024-02-23T09:40:50;12.32;;;2.67;;
67816;SDS011;54614;47.576;7.524;2024-02-23T09:43:17;8.57;;;2.90;;
67816;SDS011;54614;47.576;7.524;2024-02-23T09:45:46;10.93;;;2.53;;
67816;SDS011;54614;47.576;7.524;2024-02-23T09:48:12;17.42;;;2.72;;
67816;SDS011;54614;47.576;7.524;2024-02-23T09:50:43;6.03;;;2.20;;
67816;SDS011;54614;47.576;7.524;2024-02-23T09:53:11;3.90;;;2.05;;
67816;SDS011;54614;47.576;7.524;2024-02-23T09:55:39;5.47;;;2.30;;
67816;SDS011;54614;47.576;7.524;2024-02-23T09:58:05;3.22;;;2.10;;
67816;SDS011;54614;47.576;7.524;2024-02-23T10:00:34;6.82;;;2.20;;
67816;SDS011;54614;47.576;7.524;2024-02-23T10:03:04;5.47;;;2.17;;
67816;SDS011;54614;47.576;7.524;2024-02-23T10:05:30;4.00;;;2.10;;
67816;SDS011;54614;47.576;7.524;2024-02-23T10:07:57;5.88;;;2.38;;
67816;SDS011;54614;47.576;7.524;2024-02-23T10:10:24;4.95;;;1.92;;
67816;SDS011;54614;47.576;7.524;2024-02-23T10:12:56;6.55;;;2.20;;
67816;SDS011;54614;47.576;7.524;2024-02-23T10:15:23;3.75;;;2.15;;
67816;SDS011;54614;47.576;7.524;2024-02-23T10:17:50;5.32;;;2.13;;
67816;SDS011;54614;47.576;7.524;2024-02-23T10:20:15;9.53;;;2.30;;
67816;SDS011;54614;47.576;7.524;2024-02-23T10:22:42;4.82;;;2.22;;
67816;SDS011;54614;47.576;7.524;2024-02-23T10:25:10;4.45;;;2.45;;
67816;SDS011;54614;47.576;7.524;2024-02-23T10:27:35;6.78;;;2.22;;
67816;SDS011;54614;47.576;7.524;2024-02-23T10:30:02;7.18;;;2.35;;
67816;SDS011;54614;47.576;7.524;2024-02-23T10:32:29;5.25;;;2.20;;
67816;SDS011;54614;47.576;7.524;2024-02-23T10:34:58;5.15;;;1.95;;
67816;SDS011;54614;47.576;7.524;2024-02-23T10:37:29;5.00;;;1.98;;
67816;SDS011;54614;47.576;7.524;2024-02-23T10:39:57;3.35;;;2.28;;
67816;SDS011;54614;47.576;7.524;2024-02-23T10:42:28;7.68;;;2.35;;
67816;SDS011;54614;47.576;7.524;2024-02-23T10:44:59;7.15;;;2.20;;
67816;SDS011;54614;47.576;7.524;2024-02-23T10:47:27;4.55;;;2.20;;
67816;SDS011;54614;47.576;7.524;2024-02-23T10:49:55;7.35;;;2.05;;
67816;SDS011;54614;47.576;7.524;2024-02-23T10:52:26;3.95;;;2.10;;
67816;SDS011;54614;47.576;7.524;2024-02-23T10:54:53;5.75;;;2.10;;
67816;SDS011;54614;47.576;7.524;2024-02-23T10:57:21;3.05;;;2.00;;
67816;SDS011;54614;47.576;7.524;2024-02-23T10:59:46;4.20;;;2.28;;
67816;SDS011;54614;47.576;7.524;2024-02-23T11:02:14;4.60;;;2.20;;
67816;SDS011;54614;47.576;7.524;2024-02-23T11:04:48;2.67;;;1.80;;
67816;SDS011;54614;47.576;7.524;2024-02-23T11:07:15;2.63;;;1.85;;
67816;SDS011;54614;47.576;7.524;2024-02-23T11:09:54;6.47;;;2.33;;
67816;SDS011;54614;47.576;7.524;2024-02-23T11:12:24;8.35;;;2.10;;
67816;SDS011;54614;47.576;7.524;2024-02-23T11:14:51;3.20;;;1.90;;
67816;SDS011;54614;47.576;7.524;2024-02-23T11:17:25;2.40;;;1.70;;
67816;SDS011;54614;47.576;7.524;2024-02-23T11:19:56;6.88;;;2.00;;
67816;SDS011;54614;47.576;7.524;2024-02-23T11:22:26;9.80;;;1.73;;
67816;SDS011;54614;47.576;7.524;2024-02-23T11:25:08;4.60;;;1.95;;
67816;SDS011;54614;47.576;7.524;2024-02-23T11:27:35;3.90;;;2.17;;
67816;SDS011;54614;47.576;7.524;2024-02-23T11:30:04;4.95;;;2.10;;
67816;SDS011;54614;47.576;7.524;2024-02-23T11:32:46;4.88;;;2.10;;
67816;SDS011;54614;47.576;7.524;2024-02-23T11:35:14;5.18;;;1.92;;
67816;SDS011;54614;47.576;7.524;2024-02-23T11:40:21;3.20;;;1.80;;
67816;SDS011;54614;47.576;7.524;2024-02-23T11:42:47;2.50;;;1.67;;
67816;SDS011;54614;47.576;7.524;2024-02-23T11:45:13;4.18;;;1.90;;
67816;SDS011;54614;47.576;7.524;2024-02-23T11:47:39;2.55;;;1.88;;
67816;SDS011;54614;47.576;7.524;2024-02-23T11:50:08;6.78;;;2.10;;
67816;SDS011;54614;47.576;7.524;2024-02-23T11:52:38;5.18;;;1.67;;
67816;SDS011;54614;47.576;7.524;2024-02-23T11:55:04;2.60;;;1.80;;
67816;SDS011;54614;47.576;7.524;2024-02-23T11:57:33;2.88;;;1.63;;
67816;SDS011;54614;47.576;7.524;2024-02-23T12:00:03;4.82;;;1.60;;
67816;SDS011;54614;47.576;7.524;2024-02-23T12:02:34;2.38;;;1.73;;
67816;SDS011;54614;47.576;7.524;2024-02-23T12:05:00;3.58;;;1.77;;
67816;SDS011;54614;47.576;7.524;2024-02-23T12:07:30;3.07;;;1.70;;
67816;SDS011;54614;47.576;7.524;2024-02-23T12:09:57;2.70;;;1.70;;
67816;SDS011;54614;47.576;7.524;2024-02-23T12:12:26;1.92;;;1.60;;
67816;SDS011;54614;47.576;7.524;2024-02-23T12:14:52;7.20;;;1.85;;
67816;SDS011;54614;47.576;7.524;2024-02-23T12:17:19;4.53;;;1.52;;
67816;SDS011;54614;47.576;7.524;2024-02-23T12:19:45;2.63;;;1.70;;
67816;SDS011;54614;47.576;7.524;2024-02-23T12:22:10;4.28;;;1.85;;
67816;SDS011;54614;47.576;7.524;2024-02-23T12:24:37;2.60;;;1.60;;
67816;SDS011;54614;47.576;7.524;2024-02-23T12:27:06;5.65;;;1.75;;
67816;SDS011;54614;47.576;7.524;2024-02-23T12:29:32;7.25;;;1.80;;
67816;SDS011;54614;47.576;7.524;2024-02-23T12:32:07;3.53;;;1.52;;
67816;SDS011;54614;47.576;7.524;2024-02-23T12:34:34;5.18;;;1.60;;
67816;SDS011;54614;47.576;7.524;2024-02-23T12:37:01;2.83;;;1.70;;
67816;SDS011;54614;47.576;7.524;2024-02-23T12:39:29;3.00;;;1.60;;
67816;SDS011;54614;47.576;7.524;2024-02-23T12:41:54;1.70;;;1.58;;
67816;SDS011;54614;47.576;7.524;2024-02-23T12:44:22;4.57;;;1.60;;
67816;SDS011;54614;47.576;7.524;2024-02-23T12:46:47;3.67;;;1.60;;
67816;SDS011;54614;47.576;7.524;2024-02-23T12:49:13;5.18;;;1.70;;
67816;SDS011;54614;47.576;7.524;2024-02-23T12:51:41;2.80;;;1.50;;
67816;SDS011;54614;47.576;7.524;2024-02-23T12:54:07;3.10;;;1.55;;
67816;SDS011;54614;47.576;7.524;2024-02-23T12:56:33;2.03;;;1.67;;
67816;SDS011;54614;47.576;7.524;2024-02-23T12:58:58;3.38;;;1.63;;
67816;SDS011;54614;47.576;7.524;2024-02-23T13:01:24;2.55;;;1.60;;
67816;SDS011;54614;47.576;7.524;2024-02-23T13:03:50;1.40;;;1.30;;
67816;SDS011;54614;47.576;7.524;2024-02-23T13:06:16;3.80;;;1.60;;
67816;SDS011;54614;47.576;7.524;2024-02-23T13:08:42;3.25;;;1.60;;
67816;SDS011;54614;47.576;7.524;2024-02-23T13:11:08;3.83;;;1.55;;
67816;SDS011;54614;47.576;7.524;2024-02-23T13:13:34;5.18;;;1.42;;
67816;SDS011;54614;47.576;7.524;2024-02-23T13:16:00;3.35;;;1.65;;
67816;SDS011;54614;47.576;7.524;2024-02-23T13:18:25;4.30;;;1.70;;
67816;SDS011;54614;47.576;7.524;2024-02-23T13:20:51;1.92;;;1.52;;
67816;SDS011;54614;47.576;7.524;2024-02-23T13:23:17;2.53;;;1.50;;
67816;SDS011;54614;47.576;7.524;2024-02-23T13:25:44;5.07;;;1.60;;
67816;SDS011;54614;47.576;7.524;2024-02-23T13:28:11;7.57;;;1.88;;
67816;SDS011;54614;47.576;7.524;2024-02-23T13:30:37;1.92;;;1.45;;
67816;SDS011;54614;47.576;7.524;2024-02-23T13:33:04;2.17;;;1.40;;
67816;SDS011;54614;47.576;7.524;2024-02-23T13:35:31;2.13;;;1.50;;
67816;SDS011;54614;47.576;7.524;2024-02-23T13:37:57;5.30;;;1.50;;
67816;SDS011;54614;47.576;7.524;2024-02-23T13:40:23;6.55;;;1.73;;
67816;SDS011;54614;47.576;7.524;2024-02-23T13:42:49;1.85;;;1.40;;
67816;SDS011;54614;47.576;7.524;2024-02-23T13:45:15;2.83;;;1.50;;
67816;SDS011;54614;47.576;7.524;2024-02-23T13:47:42;2.08;;;1.50;;
67816;SDS011;54614;47.576;7.524;2024-02-23T13:50:19;4.18;;;1.77;;
67816;SDS011;54614;47.576;7.524;2024-02-23T13:52:45;4.78;;;1.50;;
67816;SDS011;54614;47.576;7.524;2024-02-23T13:55:12;1.55;;;1.40;;
67816;SDS011;54614;47.576;7.524;2024-02-23T13:57:39;3.85;;;1.38;;
67816;SDS011;54614;47.576;7.524;2024-02-23T14:00:05;2.58;;;1.40;;
67816;SDS011;54614;47.576;7.524;2024-02-23T14:02:37;2.58;;;1.58;;
67816;SDS011;54614;47.576;7.524;2024-02-23T14:05:05;3.95;;;1.35;;
67816;SDS011;54614;47.576;7.524;2024-02-23T14:07:35;2.55;;;1.60;;
67816;SDS011;54614;47.576;7.524;2024-02-23T14:10:01;4.25;;;1.50;;
67816;SDS011;54614;47.576;7.524;2024-02-23T14:12:28;4.80;;;1.50;;
67816;SDS011;54614;47.576;7.524;2024-02-23T14:14:55;3.35;;;1.50;;
67816;SDS011;54614;47.576;7.524;2024-02-23T14:17:21;5.80;;;1.60;;
67816;SDS011;54614;47.576;7.524;2024-02-23T14:19:47;1.83;;;1.20;;
67816;SDS011;54614;47.576;7.524;2024-02-23T14:22:12;1.63;;;1.40;;
67816;SDS011;54614;47.576;7.524;2024-02-23T14:24:38;2.92;;;1.60;;
67816;SDS011;54614;47.576;7.524;2024-02-23T14:27:05;2.13;;;1.42;;
67816;SDS011;54614;47.576;7.524;2024-02-23T14:29:31;1.48;;;1.38;;
67816;SDS011;54614;47.576;7.524;2024-02-23T14:31:58;1.80;;;1.50;;
67816;SDS011;54614;47.576;7.524;2024-02-23T14:34:26;2.92;;;1.30;;
67816;SDS011;54614;47.576;7.524;2024-02-23T14:36:52;6.88;;;1.60;;
67816;SDS011;54614;47.576;7.524;2024-02-23T14:39:18;3.80;;;1.63;;
67816;SDS011;54614;47.576;7.524;2024-02-23T14:41:43;7.57;;;1.80;;
67816;SDS011;54614;47.576;7.524;2024-02-23T14:44:09;3.08;;;1.50;;
67816;SDS011;54614;47.576;7.524;2024-02-23T14:46:35;4.28;;;1.35;;
67816;SDS011;54614;47.576;7.524;2024-02-23T14:49:01;2.55;;;1.50;;